Time;durP1;ratioP1;P1;durP2;ratioP2;P2;SDS_P1;SDS_P2;PMS_P1;PMS_P2;Temp;Humidity;BMP_temperature;BMP_pressure;BME280_temperature;BME280_humidity;BME280_pressure;Samples;Min_cycle;Max_cycle;Signal;HPM_P1;HPM_P2
2022/04/13 00:01:20;;;;;;;;;;;;;;;15.16;77.41;97766.63;5077846;28;19924;-75
2022/04/13 00:03:47;;;;;;;;;;;;;;;14.64;79.25;97767.72;5077998;28;19924;-75
2022/04/13 00:06:15;;;;;;;;;;;;;;;14.69;79.97;97770.34;5074601;28;20230;-74
2022/04/13 00:08:44;;;;;;;;;;;;;;;14.79;80.13;97772.88;5075110;28;19931;-74
2022/04/13 00:11:10;;;;;;;;;;;;;;;14.93;79.31;97760.28;5077910;28;19992;-75
2022/04/13 00:13:36;;;;;;;;;;;;;;;15.06;77.97;97772.19;5078924;28;19986;-75
2022/04/13 00:16:03;;;;;;;;;;;;;;;15.08;77.18;97761.91;5075604;28;19928;-74
2022/04/13 00:18:29;;;;;;;;;;;;;;;15.11;77.11;97769.38;5074718;28;19932;-74
2022/04/13 00:20:56;;;;;;;;;;;;;;;15.03;77.52;97773.56;5076283;28;19955;-73
2022/04/13 00:23:22;;;;;;;;;;;;;;;15.08;77.12;97762.72;5077693;28;20111;-74
2022/04/13 00:25:50;;;;;;;;;;;;;;;15.09;76.99;97774.28;5077353;28;19924;-74
2022/04/13 00:28:16;;;;;;;;;;;;;;;15.08;76.83;97778.84;5075373;28;19988;-74
2022/04/13 00:30:43;;;;;;;;;;;;;;;15.03;77.15;97770.06;5076500;28;19984;-74
2022/04/13 00:33:09;;;;;;;;;;;;;;;15.02;77.39;97780.03;5079044;28;19933;-74
2022/04/13 00:35:36;;;;;;;;;;;;;;;15.05;77.07;97767.88;5078406;28;20011;-75
2022/04/13 00:38:03;;;;;;;;;;;;;;;15.05;77.07;97774.06;5074691;28;20007;-74
2022/04/13 00:40:29;;;;;;;;;;;;;;;15.03;77.14;97770.88;5075073;28;19935;-75
2022/04/13 00:42:57;;;;;;;;;;;;;;;15.03;76.88;97776.25;5075838;28;19948;-74
2022/04/13 00:45:23;;;;;;;;;;;;;;;15.00;76.67;97773.34;5078425;28;19924;-75
2022/04/13 00:47:50;;;;;;;;;;;;;;;14.99;76.64;97769.84;5076753;28;19920;-75
2022/04/13 00:50:16;;;;;;;;;;;;;;;14.92;76.85;97782.06;5073978;28;19921;-74
2022/04/13 00:52:44;;;;;;;;;;;;;;;14.91;76.66;97778.63;5075467;28;19956;-74
2022/04/13 00:55:11;;;;;;;;;;;;;;;14.92;76.67;97769.44;5078602;28;19995;-74
2022/04/13 00:57:38;;;;;;;;;;;;;;;14.91;76.36;97778.63;5078355;28;19960;-74
2022/04/13 01:00:09;;;;;;;;;;;;;;;14.90;76.19;97774.31;5062131;28;19971;-74
2022/04/13 01:02:36;;;;;;;;;;;;;;;14.89;75.89;97780.78;5083267;28;19936;-75
2022/04/13 01:05:04;;;;;;;;;;;;;;;14.88;75.79;97770.31;5076747;28;19924;-74
2022/04/13 01:07:30;;;;;;;;;;;;;;;14.87;75.74;97771.41;5076941;28;19924;-74
2022/04/13 01:09:57;;;;;;;;;;;;;;;14.83;75.82;97768.50;5075638;28;20555;-74
2022/04/13 01:12:23;;;;;;;;;;;;;;;14.84;75.88;97761.25;5074756;28;19967;-75
2022/04/13 01:14:50;;;;;;;;;;;;;;;14.82;75.72;97772.31;5073207;28;19924;-75
2022/04/13 01:17:18;;;;;;;;;;;;;;;14.74;75.94;97767.56;5073044;28;19924;-75
2022/04/13 01:19:46;;;;;;;;;;;;;;;14.73;76.29;97765.19;5074007;28;19920;-75
2022/04/13 01:22:20;;;;;;;;;;;;;;;14.74;76.05;97777.53;5076855;28;19999;-73
2022/04/13 01:24:47;;;;;;;;;;;;;;;14.73;76.02;97775.94;5076866;28;19932;-74
2022/04/13 01:27:15;;;;;;;;;;;;;;;14.74;76.20;97762.19;5074518;28;20009;-74
2022/04/13 01:29:42;;;;;;;;;;;;;;;14.69;76.40;97770.34;5074744;28;19984;-74
2022/04/13 01:32:09;;;;;;;;;;;;;;;14.70;76.29;97776.53;5077513;28;19943;-75
2022/04/13 01:34:36;;;;;;;;;;;;;;;14.67;76.34;97767.16;5077857;28;19932;-74
2022/04/13 01:37:02;;;;;;;;;;;;;;;14.59;76.73;97765.94;5073727;28;19967;-74
2022/04/13 01:39:30;;;;;;;;;;;;;;;14.61;76.67;97773.69;5073021;28;19924;-73
2022/04/13 01:41:56;;;;;;;;;;;;;;;14.62;76.54;97759.16;5074879;28;20037;-73
2022/04/13 01:44:23;;;;;;;;;;;;;;;14.59;76.45;97765.94;5071829;28;19935;-74
2022/04/13 01:46:49;;;;;;;;;;;;;;;14.55;76.76;97762.22;5075034;28;19924;-74
2022/04/13 01:49:15;;;;;;;;;;;;;;;14.51;76.79;97760.44;5073812;28;19925;-73
2022/04/13 01:51:42;;;;;;;;;;;;;;;14.49;77.40;97767.97;5073118;28;19948;-73
2022/04/13 01:54:08;;;;;;;;;;;;;;;14.50;77.26;97759.63;5077568;28;19956;-75
2022/04/13 01:56:35;;;;;;;;;;;;;;;14.44;77.65;97758.09;5076389;28;20437;-74
2022/04/13 01:59:02;;;;;;;;;;;;;;;14.42;77.76;97759.50;5072818;28;19939;-74
2022/04/13 02:01:29;;;;;;;;;;;;;;;14.41;78.05;97760.56;5072630;28;19921;-74
2022/04/13 02:03:55;;;;;;;;;;;;;;;14.35;78.17;97764.41;5075976;28;19948;-73
2022/04/13 02:06:22;;;;;;;;;;;;;;;14.36;78.25;97768.72;5077111;28;20456;-74
2022/04/13 02:08:49;;;;;;;;;;;;;;;14.27;79.00;97767.69;5074266;28;19925;-74
2022/04/13 02:11:15;;;;;;;;;;;;;;;14.35;78.65;97765.22;5073348;28;20015;-74
2022/04/13 02:13:43;;;;;;;;;;;;;;;14.32;78.37;97765.78;5072999;28;19984;-75
2022/04/13 02:16:09;;;;;;;;;;;;;;;14.30;78.68;97772.50;5071948;28;19948;-74
2022/04/13 02:18:35;;;;;;;;;;;;;;;14.26;78.84;97760.75;5073122;28;19977;-74
2022/04/13 02:21:02;;;;;;;;;;;;;;;14.28;78.54;97777.38;5075094;28;19925;-74
2022/04/13 02:23:29;;;;;;;;;;;;;;;14.26;78.66;97771.50;5075331;28;19999;-74
2022/04/13 02:25:55;;;;;;;;;;;;;;;14.29;78.48;97776.28;5073139;28;19985;-75
2022/04/13 02:28:22;;;;;;;;;;;;;;;14.29;78.32;97766.34;5073259;28;19971;-74
2022/04/13 02:30:49;;;;;;;;;;;;;;;14.31;78.16;97772.22;5074686;28;19936;-72
2022/04/13 02:33:16;;;;;;;;;;;;;;;14.20;78.91;97773.47;5077028;28;19932;-73
2022/04/13 02:35:44;;;;;;;;;;;;;;;14.17;78.84;97774.03;5074484;28;22667;-74
2022/04/13 02:38:11;;;;;;;;;;;;;;;14.18;78.91;97767.56;5074269;28;19932;-74
2022/04/13 02:40:37;;;;;;;;;;;;;;;14.14;79.52;97771.94;5074397;28;20019;-74
2022/04/13 02:43:03;;;;;;;;;;;;;;;14.12;79.11;97767.91;5079929;28;20312;-73
2022/04/13 02:45:33;;;;;;;;;;;;;;;14.14;78.89;97768.44;5081128;28;19924;-76
2022/04/13 02:48:00;;;;;;;;;;;;;;;14.18;78.48;97766.75;5076455;28;19947;-74
2022/04/13 02:50:27;;;;;;;;;;;;;;;14.17;78.42;97759.81;5076018;28;19996;-74
2022/04/13 02:52:56;;;;;;;;;;;;;;;14.16;78.65;97761.69;5078823;28;20249;-74
2022/04/13 02:55:22;;;;;;;;;;;;;;;14.20;78.06;97762.72;5080095;28;19959;-74
2022/04/13 02:57:48;;;;;;;;;;;;;;;14.17;78.12;97760.63;5077474;28;19995;-74
2022/04/13 03:00:15;;;;;;;;;;;;;;;14.11;78.67;97753.72;5076366;28;19960;-74
2022/04/13 03:02:44;;;;;;;;;;;;;;;14.11;78.41;97758.28;5076620;28;20027;-73
2022/04/13 03:05:12;;;;;;;;;;;;;;;14.03;78.80;97757.03;5079758;28;19925;-74
2022/04/13 03:07:38;;;;;;;;;;;;;;;13.99;79.46;97762.16;5079709;28;20622;-74
2022/04/13 03:10:04;;;;;;;;;;;;;;;13.93;79.94;97763.31;5068174;28;19929;-74
2022/04/13 03:12:33;;;;;;;;;;;;;;;13.95;79.62;97758.47;5075072;28;19921;-73
2022/04/13 03:15:01;;;;;;;;;;;;;;;13.95;79.78;97760.38;5078366;28;19963;-74
2022/04/13 03:17:27;;;;;;;;;;;;;;;13.92;79.97;97758.25;5079488;28;19935;-74
2022/04/13 03:19:54;;;;;;;;;;;;;;;13.90;80.30;97769.25;5077471;28;19970;-73
2022/04/13 03:22:23;;;;;;;;;;;;;;;13.88;80.54;97765.28;5075736;28;19984;-74
2022/04/13 03:24:50;;;;;;;;;;;;;;;13.90;80.43;97763.91;5078173;28;19930;-74
2022/04/13 03:27:17;;;;;;;;;;;;;;;13.92;80.40;97764.44;5079167;28;19924;-74
2022/04/13 03:29:43;;;;;;;;;;;;;;;13.92;80.36;97764.44;5079503;28;19925;-74
2022/04/13 03:32:10;;;;;;;;;;;;;;;13.91;80.48;97759.31;5076287;28;19921;-75
2022/04/13 03:34:36;;;;;;;;;;;;;;;13.90;80.76;97771.94;5075915;28;20265;-75
2022/04/13 03:37:03;;;;;;;;;;;;;;;13.87;80.63;97775.22;5079205;28;19932;-75
2022/04/13 03:39:31;;;;;;;;;;;;;;;13.86;80.46;97768.25;5079381;28;19932;-74
2022/04/13 03:41:57;;;;;;;;;;;;;;;13.89;80.10;97773.06;5075539;28;19999;-74
2022/04/13 03:44:24;;;;;;;;;;;;;;;13.90;80.17;97768.47;5073562;28;19931;-73
2022/04/13 03:46:50;;;;;;;;;;;;;;;13.90;80.08;97769.25;5077726;28;19971;-73
2022/04/13 03:49:16;;;;;;;;;;;;;;;13.87;80.18;97775.22;5075645;28;20005;-74
2022/04/13 03:51:43;;;;;;;;;;;;;;;13.85;80.14;97768.53;5076159;28;19924;-74
2022/04/13 03:54:10;;;;;;;;;;;;;;;13.83;80.28;97771.50;5079046;28;19967;-74
2022/04/13 03:56:37;;;;;;;;;;;;;;;13.81;80.32;97773.66;5078467;28;19987;-74
2022/04/13 03:59:04;;;;;;;;;;;;;;;13.77;80.46;97775.31;5075904;28;19951;-74
2022/04/13 04:01:31;;;;;;;;;;;;;;;13.80;80.36;97776.66;5075658;28;19983;-74
2022/04/13 04:03:57;;;;;;;;;;;;;;;13.83;80.29;97784.13;5077885;28;19924;-75
2022/04/13 04:06:24;;;;;;;;;;;;;;;13.78;80.42;97779.63;5078700;28;19952;-75
2022/04/13 04:08:51;;;;;;;;;;;;;;;13.73;80.76;97781.56;5076795;28;19921;-75
2022/04/13 04:11:17;;;;;;;;;;;;;;;13.75;80.82;97788.25;5075113;28;19925;-73
2022/04/13 04:13:45;;;;;;;;;;;;;;;13.70;80.87;97782.94;5067075;28;19925;-74
2022/04/13 04:16:11;;;;;;;;;;;;;;;13.70;80.91;97788.31;5078853;28;19920;-74
2022/04/13 04:18:38;;;;;;;;;;;;;;;13.71;80.89;97784.53;5078657;28;19975;-73
2022/04/13 04:21:04;;;;;;;;;;;;;;;13.70;80.89;97791.00;5073879;28;20047;-74
2022/04/13 04:23:30;;;;;;;;;;;;;;;13.64;81.04;97794.81;5075018;28;19982;-74
2022/04/13 04:25:57;;;;;;;;;;;;;;;13.63;81.05;97806.63;5077122;28;19925;-73
2022/04/13 04:28:23;;;;;;;;;;;;;;;13.54;81.55;97802.97;5076984;28;19991;-73
2022/04/13 04:30:51;;;;;;;;;;;;;;;13.39;82.15;97793.19;5075440;28;19935;-74
2022/04/13 04:33:17;;;;;;;;;;;;;;;13.47;82.56;97805.97;5074570;28;19960;-74
2022/04/13 04:35:46;;;;;;;;;;;;;;;13.52;82.14;97794.41;5074595;28;19921;-75
2022/04/13 04:38:12;;;;;;;;;;;;;;;13.52;82.19;97805.16;5077409;28;19970;-75
2022/04/13 04:40:39;;;;;;;;;;;;;;;13.50;82.20;97802.72;5077755;28;20492;-74
2022/04/13 04:43:05;;;;;;;;;;;;;;;13.51;82.10;97811.59;5062382;28;19928;-74
2022/04/13 04:45:32;;;;;;;;;;;;;;;13.50;81.93;97812.66;5077920;28;19948;-74
2022/04/13 04:48:04;;;;;;;;;;;;;;;13.55;81.78;97809.94;5076268;28;19924;-74
2022/04/13 04:50:31;;;;;;;;;;;;;;;13.53;81.84;97812.09;5074031;28;19963;-74
2022/04/13 04:52:57;;;;;;;;;;;;;;;13.54;81.78;97808.34;5076108;28;19932;-74
2022/04/13 04:55:24;;;;;;;;;;;;;;;13.56;81.63;97808.84;5077232;28;19959;-74
2022/04/13 04:57:51;;;;;;;;;;;;;;;13.50;81.74;97808.09;5075783;28;19924;-74
2022/04/13 05:00:19;;;;;;;;;;;;;;;12.92;84.28;97812.63;5074204;28;19925;-74
2022/04/13 05:02:47;;;;;;;;;;;;;;;13.03;85.22;97807.97;5073465;28;20404;-74
2022/04/13 05:05:14;;;;;;;;;;;;;;;13.19;84.11;97811.34;5075420;28;19930;-74
2022/04/13 05:07:41;;;;;;;;;;;;;;;13.30;83.40;97807.50;5075526;28;20614;-74
2022/04/13 05:10:08;;;;;;;;;;;;;;;13.20;83.77;97810.28;5073304;28;19941;-74
2022/04/13 05:12:42;;;;;;;;;;;;;;;12.97;84.47;97814.44;5072137;28;20422;-74
2022/04/13 05:15:09;;;;;;;;;;;;;;;13.17;84.38;97822.38;5065511;28;20501;-74
2022/04/13 05:17:35;;;;;;;;;;;;;;;13.25;83.79;97824.44;5073418;28;20239;-75
2022/04/13 05:20:02;;;;;;;;;;;;;;;13.36;82.98;97825.16;5076673;28;19920;-74
2022/04/13 05:22:29;;;;;;;;;;;;;;;13.38;82.74;97828.34;5077183;28;20023;-74
2022/04/13 05:24:56;;;;;;;;;;;;;;;13.40;82.18;97826.19;5073031;28;19924;-73
2022/04/13 05:27:22;;;;;;;;;;;;;;;13.42;82.19;97832.06;5073308;28;19932;-74
2022/04/13 05:29:49;;;;;;;;;;;;;;;13.08;83.00;97837.47;5073037;28;19984;-74
2022/04/13 05:32:15;;;;;;;;;;;;;;;12.51;85.64;97837.25;5076701;28;19947;-75
2022/04/13 05:34:42;;;;;;;;;;;;;;;12.14;88.38;97840.41;5076150;28;19924;-75
2022/04/13 05:37:08;;;;;;;;;;;;;;;12.21;89.60;97844.41;5073160;28;19951;-74
2022/04/13 05:39:38;;;;;;;;;;;;;;;12.30;88.83;97837.38;5071912;28;19982;-74
2022/04/13 05:42:07;;;;;;;;;;;;;;;12.55;88.78;97843.69;5073812;28;19935;-74
2022/04/13 05:44:34;;;;;;;;;;;;;;;12.46;88.07;97851.50;5073516;28;19968;-74
2022/04/13 05:47:00;;;;;;;;;;;;;;;12.05;89.11;97848.22;5076291;28;20356;-73
2022/04/13 05:49:26;;;;;;;;;;;;;;;11.72;92.08;97851.53;5077029;28;19925;-75
2022/04/13 05:51:53;;;;;;;;;;;;;;;11.69;93.11;97852.84;5075309;28;19925;-74
2022/04/13 05:54:19;;;;;;;;;;;;;;;11.49;94.03;97860.09;5073548;28;19921;-74
2022/04/13 05:56:47;;;;;;;;;;;;;;;11.93;93.13;97855.75;5074064;28;19925;-73
2022/04/13 05:59:14;;;;;;;;;;;;;;;11.89;92.38;97854.69;5075321;28;19988;-74
2022/04/13 06:01:40;;;;;;;;;;;;;;;12.01;91.50;97859.75;5076773;28;20015;-74
2022/04/13 06:04:07;;;;;;;;;;;;;;;12.74;88.48;97860.72;5071732;28;19924;-73
2022/04/13 06:06:34;;;;;;;;;;;;;;;12.60;87.37;97868.56;5072175;28;19925;-73
2022/04/13 06:09:01;;;;;;;;;;;;;;;12.25;88.31;97858.84;5076716;28;19925;-74
2022/04/13 06:11:27;;;;;;;;;;;;;;;12.23;90.24;97869.00;5077077;28;19959;-74
2022/04/13 06:13:55;;;;;;;;;;;;;;;12.21;88.49;97865.00;5068488;28;19924;-74
2022/04/13 06:16:21;;;;;;;;;;;;;;;12.64;88.57;97868.81;5077067;28;19931;-74
2022/04/13 06:18:48;;;;;;;;;;;;;;;13.04;86.29;97871.22;5078548;28;20507;-73
2022/04/13 06:21:14;;;;;;;;;;;;;;;12.96;85.21;97871.84;5076824;28;19921;-73
2022/04/13 06:23:40;;;;;;;;;;;;;;;13.14;85.27;97873.88;5075446;28;19992;-73
2022/04/13 06:26:07;;;;;;;;;;;;;;;13.37;84.55;97880.38;5080816;28;20096;-74
2022/04/13 06:28:33;;;;;;;;;;;;;;;13.62;83.08;97876.66;5079518;28;19993;-74
2022/04/13 06:31:01;;;;;;;;;;;;;;;13.76;82.32;97883.78;5077586;28;20495;-74
2022/04/13 06:33:28;;;;;;;;;;;;;;;13.90;81.14;97879.34;5076781;28;19925;-74
2022/04/13 06:35:54;;;;;;;;;;;;;;;14.00;80.03;97898.03;5079128;28;20000;-74
2022/04/13 06:38:20;;;;;;;;;;;;;;;13.88;79.70;97896.81;5080304;28;19946;-73
2022/04/13 06:40:47;;;;;;;;;;;;;;;13.90;79.62;97898.13;5079203;28;19935;-74
2022/04/13 06:43:14;;;;;;;;;;;;;;;14.00;80.14;97897.22;5068089;28;19936;-73
2022/04/13 06:45:40;;;;;;;;;;;;;;;14.03;78.53;97908.19;5075633;28;19964;-74
2022/04/13 06:48:09;;;;;;;;;;;;;;;13.42;81.10;97901.81;5080653;28;19924;-74
2022/04/13 06:50:36;;;;;;;;;;;;;;;13.16;84.06;97911.91;5078782;28;19946;-74
2022/04/13 06:53:02;;;;;;;;;;;;;;;13.50;84.06;97915.41;5076855;28;19960;-73
2022/04/13 06:55:30;;;;;;;;;;;;;;;13.84;82.63;97911.88;5075059;28;20840;-74
2022/04/13 06:57:56;;;;;;;;;;;;;;;14.26;80.49;97911.97;5078633;28;20106;-72
2022/04/13 07:00:23;;;;;;;;;;;;;;;14.61;77.64;97907.28;5080039;28;19951;-74
2022/04/13 07:02:49;;;;;;;;;;;;;;;14.63;77.59;97907.78;5077133;28;19943;-75
2022/04/13 07:05:17;;;;;;;;;;;;;;;14.84;76.82;97915.28;5076146;28;19920;-74
2022/04/13 07:07:43;;;;;;;;;;;;;;;14.75;74.53;97908.97;5075481;28;19925;-75
2022/04/13 07:10:10;;;;;;;;;;;;;;;14.17;75.68;97910.22;5079436;28;19924;-73
2022/04/13 07:12:36;;;;;;;;;;;;;;;14.00;78.99;97913.34;5072288;28;19971;-74
2022/04/13 07:15:04;;;;;;;;;;;;;;;14.48;78.70;97898.03;5079244;28;19982;-73
2022/04/13 07:17:30;;;;;;;;;;;;;;;14.81;77.00;97907.81;5078114;28;19970;-74
2022/04/13 07:19:56;;;;;;;;;;;;;;;14.92;75.56;97911.94;5077412;28;19927;-74
2022/04/13 07:22:24;;;;;;;;;;;;;;;14.97;73.51;97917.28;5076073;28;19925;-73
2022/04/13 07:24:51;;;;;;;;;;;;;;;14.79;74.97;97904.59;5077631;28;19935;-74
2022/04/13 07:27:17;;;;;;;;;;;;;;;14.78;73.86;97904.91;5079342;28;20119;-74
2022/04/13 07:29:43;;;;;;;;;;;;;;;14.85;75.84;97908.03;5076896;28;20567;-74
2022/04/13 07:32:10;;;;;;;;;;;;;;;14.99;74.86;97904.31;5074232;28;19924;-74
2022/04/13 07:34:36;;;;;;;;;;;;;;;15.05;74.08;97907.72;5075272;28;19920;-73
2022/04/13 07:37:03;;;;;;;;;;;;;;;14.97;74.05;97900.34;5077101;28;19931;-74
2022/04/13 07:39:31;;;;;;;;;;;;;;;15.05;73.43;97908.53;5078787;28;19929;-74
2022/04/13 07:41:57;;;;;;;;;;;;;;;14.89;72.87;97909.03;5076273;28;19970;-74
2022/04/13 07:44:23;;;;;;;;;;;;;;;14.94;74.55;97907.09;5073018;28;19988;-74
2022/04/13 07:46:50;;;;;;;;;;;;;;;14.74;70.09;97920.81;5077526;28;19959;-75
2022/04/13 07:49:16;;;;;;;;;;;;;;;14.59;73.48;97907.56;5075154;28;19935;-74
2022/04/13 07:51:42;;;;;;;;;;;;;;;14.69;75.06;97909.31;5075297;28;19925;-73
2022/04/13 07:54:09;;;;;;;;;;;;;;;14.71;74.86;97901.75;5077274;28;19928;-73
2022/04/13 07:56:36;;;;;;;;;;;;;;;14.72;73.21;97914.94;5078279;28;19925;-74
2022/04/13 07:59:03;;;;;;;;;;;;;;;14.66;73.84;97909.91;5075122;28;19984;-74
2022/04/13 08:01:29;;;;;;;;;;;;;;;14.91;72.08;97915.75;5073600;28;19942;-74
2022/04/13 08:03:56;;;;;;;;;;;;;;;14.90;72.47;97914.13;5075852;28;19962;-74
2022/04/13 08:06:23;;;;;;;;;;;;;;;14.85;69.14;97916.91;5078662;28;20021;-74
2022/04/13 08:08:49;;;;;;;;;;;;;;;14.54;70.25;97921.06;5078029;28;19964;-74
2022/04/13 08:11:15;;;;;;;;;;;;;;;14.41;70.39;97911.81;5075779;28;19921;-74
2022/04/13 08:13:43;;;;;;;;;;;;;;;14.42;70.23;97915.31;5067004;28;19977;-74
2022/04/13 08:16:09;;;;;;;;;;;;;;;14.40;69.97;97912.91;5078400;28;19924;-74
2022/04/13 08:18:36;;;;;;;;;;;;;;;14.42;70.45;97915.31;5077987;28;19939;-74
2022/04/13 08:21:04;;;;;;;;;;;;;;;14.26;70.84;97921.91;5075043;28;20003;-74
2022/04/13 08:23:30;;;;;;;;;;;;;;;14.23;69.64;97917.13;5074262;28;19921;-74
2022/04/13 08:25:56;;;;;;;;;;;;;;;14.25;70.10;97914.94;5075314;28;19963;-74
2022/04/13 08:28:23;;;;;;;;;;;;;;;14.44;71.73;97921.19;5078195;28;19924;-74
2022/04/13 08:30:51;;;;;;;;;;;;;;;14.53;70.71;97916.78;5075116;28;19925;-72
2022/04/13 08:33:17;;;;;;;;;;;;;;;14.58;70.10;97914.81;5073943;28;19935;-74
2022/04/13 08:35:44;;;;;;;;;;;;;;;14.43;70.34;97916.91;5074876;28;19980;-75
2022/04/13 08:38:10;;;;;;;;;;;;;;;14.35;72.89;97920.22;5077751;28;19924;-74
2022/04/13 08:40:39;;;;;;;;;;;;;;;14.34;74.17;97924.81;5076722;28;19979;-73
2022/04/13 08:43:09;;;;;;;;;;;;;;;14.34;75.38;97919.44;5061855;28;19920;-74
2022/04/13 08:45:38;;;;;;;;;;;;;;;14.32;75.29;97920.78;5075946;28;19925;-73
2022/04/13 08:48:09;;;;;;;;;;;;;;;14.37;75.83;97929.59;5072683;28;19921;-73
2022/04/13 08:50:36;;;;;;;;;;;;;;;14.58;76.50;97914.81;5073852;28;20014;-73
2022/04/13 08:53:04;;;;;;;;;;;;;;;14.50;76.83;97917.34;5077044;28;20526;-74
2022/04/13 08:55:31;;;;;;;;;;;;;;;14.59;77.40;97913.75;5076008;28;19930;-75
2022/04/13 08:58:03;;;;;;;;;;;;;;;14.78;76.30;97924.53;5074695;28;19924;-74
2022/04/13 09:00:32;;;;;;;;;;;;;;;14.85;76.22;97916.91;5073770;28;19956;-75
2022/04/13 09:03:14;;;;;;;;;;;;;;;15.04;74.43;97906.94;5074790;28;19928;-74
2022/04/13 09:05:41;;;;;;;;;;;;;;;14.98;73.20;97910.78;5077198;28;19928;-74
2022/04/13 09:08:10;;;;;;;;;;;;;;;14.91;72.36;97909.56;5073514;28;19933;-75
2022/04/13 09:10:37;;;;;;;;;;;;;;;14.87;72.11;97916.59;5072380;28;19987;-73
2022/04/13 09:13:03;;;;;;;;;;;;;;;14.99;71.95;97911.59;5076591;28;19924;-73
2022/04/13 09:15:30;;;;;;;;;;;;;;;15.14;71.90;97909.47;5077049;28;20019;-74
2022/04/13 09:17:56;;;;;;;;;;;;;;;15.19;70.75;97913.19;5074658;28;19950;-73
2022/04/13 09:20:24;;;;;;;;;;;;;;;15.39;68.74;97908.28;5072054;28;19987;-74
2022/04/13 09:22:51;;;;;;;;;;;;;;;15.46;66.36;97913.28;5073388;28;19925;-75
2022/04/13 09:25:19;;;;;;;;;;;;;;;15.46;66.08;97915.97;5076917;28;19963;-74
2022/04/13 09:27:46;;;;;;;;;;;;;;;15.52;66.19;97915.63;5076048;28;19935;-74
2022/04/13 09:30:13;;;;;;;;;;;;;;;15.70;64.42;97911.28;5073223;28;19996;-74
2022/04/13 09:32:40;;;;;;;;;;;;;;;15.73;64.35;97917.97;5073381;28;19936;-75
2022/04/13 09:35:07;;;;;;;;;;;;;;;15.93;65.42;97907.66;5063610;28;19960;-74
2022/04/13 09:37:35;;;;;;;;;;;;;;;15.93;59.11;97909.56;5073365;28;19925;-74
2022/04/13 09:40:02;;;;;;;;;;;;;;;16.01;53.43;97911.53;5076120;28;19924;-73
2022/04/13 09:42:28;;;;;;;;;;;;;;;16.11;58.11;97914.06;5070702;28;19936;-74
2022/04/13 09:44:56;;;;;;;;;;;;;;;16.30;56.74;97905.88;5073915;28;19967;-73
2022/04/13 09:47:23;;;;;;;;;;;;;;;16.36;54.52;97904.69;5076716;28;19928;-74
2022/04/13 09:49:50;;;;;;;;;;;;;;;16.30;54.39;97911.28;5075280;28;20714;-74
2022/04/13 09:52:18;;;;;;;;;;;;;;;16.34;54.97;97910.34;5075582;28;19935;-73
2022/04/13 09:54:47;;;;;;;;;;;;;;;16.36;54.88;97910.88;5076415;28;20006;-75
2022/04/13 09:57:20;;;;;;;;;;;;;;;16.58;52.97;97904.81;5080893;28;20433;-74
2022/04/13 09:59:53;;;;;;;;;;;;;;;16.52;53.86;97904.09;5078668;28;19920;-74
2022/04/13 10:02:33;;;;;;;;;;;;;;;16.28;54.83;97913.47;5078147;28;19927;-74
2022/04/13 10:04:59;;;;;;;;;;;;;;;16.49;56.37;97910.06;5079469;28;19932;-73
2022/04/13 10:07:26;;;;;;;;;;;;;;;16.57;56.45;97909.38;5080903;28;19925;-73
2022/04/13 10:09:54;;;;;;;;;;;;;;;16.78;56.70;97907.06;5078753;28;19926;-73
2022/04/13 10:12:20;;;;;;;;;;;;;;;16.68;55.31;97907.28;5077045;28;19925;-74
2022/04/13 10:14:47;;;;;;;;;;;;;;;16.69;54.93;97904.28;5079405;28;19925;-73
2022/04/13 10:17:15;;;;;;;;;;;;;;;16.74;56.10;97900.69;5080438;28;19925;-74
2022/04/13 10:19:42;;;;;;;;;;;;;;;16.82;56.12;97905.34;5078969;28;19931;-73
2022/04/13 10:22:08;;;;;;;;;;;;;;;16.82;56.42;97902.66;5076905;28;19955;-73
2022/04/13 10:24:36;;;;;;;;;;;;;;;16.95;57.73;97901.03;5077545;28;20344;-73
2022/04/13 10:27:04;;;;;;;;;;;;;;;16.90;58.36;97898.44;5081180;28;19982;-74
2022/04/13 10:29:31;;;;;;;;;;;;;;;17.07;59.36;97896.69;5081456;28;19925;-74
2022/04/13 10:32:05;;;;;;;;;;;;;;;17.25;58.49;97895.72;5078608;28;19951;-73
2022/04/13 10:34:32;;;;;;;;;;;;;;;17.19;57.58;97901.56;5076221;28;19956;-74
2022/04/13 10:36:58;;;;;;;;;;;;;;;17.18;55.30;97895.34;5078489;28;20002;-73
2022/04/13 10:39:25;;;;;;;;;;;;;;;17.17;53.97;97893.78;5080317;28;19967;-73
2022/04/13 10:41:51;;;;;;;;;;;;;;;17.18;53.60;97895.34;5078707;28;19994;-73
2022/04/13 10:44:23;;;;;;;;;;;;;;;17.30;53.95;97897.50;5077510;28;19984;-73
2022/04/13 10:46:52;;;;;;;;;;;;;;;17.39;53.39;97884.88;5078391;28;19929;-74
2022/04/13 10:49:22;;;;;;;;;;;;;;;17.51;53.53;97890.53;5080604;28;19925;-73
2022/04/13 10:51:53;;;;;;;;;;;;;;;17.57;54.41;97875.00;5079537;28;19924;-74
2022/04/13 10:54:22;;;;;;;;;;;;;;;17.62;52.31;97877.56;5077098;28;19931;-73
2022/04/13 10:56:56;;;;;;;;;;;;;;;17.65;52.55;97871.56;5078118;28;19951;-74
2022/04/13 10:59:30;;;;;;;;;;;;;;;17.67;54.37;97859.34;5080412;28;19970;-73
2022/04/13 11:01:59;;;;;;;;;;;;;;;17.77;54.18;97867.19;5078013;28;19920;-74
2022/04/13 11:04:27;;;;;;;;;;;;;;;17.90;52.86;97868.19;5076224;28;19935;-74
2022/04/13 11:06:54;;;;;;;;;;;;;;;18.03;52.32;97866.50;5085109;28;19948;-75
2022/04/13 11:09:25;;;;;;;;;;;;;;;18.14;53.38;97868.59;5082301;28;20314;-73
2022/04/13 11:11:52;;;;;;;;;;;;;;;18.24;52.60;97860.22;5078297;28;19963;-74
2022/04/13 11:14:19;;;;;;;;;;;;;;;18.32;51.01;97862.13;5076341;28;20389;-73
2022/04/13 11:16:47;;;;;;;;;;;;;;;18.29;50.83;97854.66;5077239;28;19984;-74
2022/04/13 11:19:20;;;;;;;;;;;;;;;18.36;50.53;97843.38;5079915;28;19935;-74
2022/04/13 11:22:05;;;;;;;;;;;;;;;18.37;50.76;97849.59;5079505;28;19925;-74
2022/04/13 11:24:33;;;;;;;;;;;;;;;18.43;51.04;97848.34;5076519;28;19931;-74
2022/04/13 11:26:59;;;;;;;;;;;;;;;18.37;51.30;97849.59;5079060;28;19931;-73
2022/04/13 11:29:33;;;;;;;;;;;;;;;18.45;51.26;97841.50;5079937;28;19946;-74
2022/04/13 11:32:11;;;;;;;;;;;;;;;18.50;51.04;97838.69;5077094;28;19946;-74
2022/04/13 11:34:39;;;;;;;;;;;;;;;18.58;50.72;97840.59;5076185;28;19972;-74
2022/04/13 11:37:08;;;;;;;;;;;;;;;18.61;50.71;97839.16;5079544;28;20258;-74
2022/04/13 11:39:44;;;;;;;;;;;;;;;18.67;50.99;97832.50;5079591;28;19963;-75
2022/04/13 11:42:14;;;;;;;;;;;;;;;18.94;50.66;97828.69;5068448;28;19920;-74
2022/04/13 11:44:47;;;;;;;;;;;;;;;18.88;50.40;97836.16;5076129;28;20011;-74
2022/04/13 11:47:15;;;;;;;;;;;;;;;18.74;51.04;97840.94;5068831;28;19924;-74
2022/04/13 11:49:54;;;;;;;;;;;;;;;18.84;51.24;97822.50;5076284;28;19931;-74
2022/04/13 11:52:40;;;;;;;;;;;;;;;18.87;51.32;97837.28;5079453;28;19935;-74
2022/04/13 11:55:14;;;;;;;;;;;;;;;18.94;51.46;97831.41;5067384;28;19924;-74
2022/04/13 11:57:51;;;;;;;;;;;;;;;19.02;51.42;97828.69;5075880;28;19944;-74
2022/04/13 12:00:32;;;;;;;;;;;;;;;18.96;51.93;97829.16;5069265;28;19931;-73
2022/04/13 12:03:01;;;;;;;;;;;;;;;19.14;51.66;97830.75;5077689;28;19932;-73
2022/04/13 12:05:28;;;;;;;;;;;;;;;19.43;50.65;97827.41;5078803;28;19925;-74
2022/04/13 12:07:54;;;;;;;;;;;;;;;19.65;50.32;97825.25;5075453;28;19925;-74
2022/04/13 12:10:20;;;;;;;;;;;;;;;19.55;51.05;97817.50;5075112;28;19924;-74
2022/04/13 12:12:50;;;;;;;;;;;;;;;19.58;50.49;97829.59;5076071;28;19951;-74
2022/04/13 12:15:17;;;;;;;;;;;;;;;19.61;50.29;97818.09;5077510;28;19955;-73
2022/04/13 12:17:43;;;;;;;;;;;;;;;19.64;50.03;97817.47;5078129;28;19984;-74
2022/04/13 12:20:27;;;;;;;;;;;;;;;19.59;50.84;97815.72;5075245;28;20199;-74
2022/04/13 12:22:53;;;;;;;;;;;;;;;19.69;50.70;97814.56;5076317;28;19935;-73
2022/04/13 12:25:20;;;;;;;;;;;;;;;19.31;51.60;97809.84;5078559;28;20508;-74
2022/04/13 12:28:01;;;;;;;;;;;;;;;19.55;51.19;97808.56;5077758;28;19925;-74
2022/04/13 12:30:27;;;;;;;;;;;;;;;19.74;50.70;97806.28;5074905;28;19964;-74
2022/04/13 12:32:54;;;;;;;;;;;;;;;19.86;50.46;97799.06;5076895;28;19988;-75
2022/04/13 12:35:22;;;;;;;;;;;;;;;20.00;49.68;97806.16;5078542;28;19992;-74
2022/04/13 12:37:52;;;;;;;;;;;;;;;19.97;50.17;97798.66;5077010;28;19924;-74
2022/04/13 12:40:19;;;;;;;;;;;;;;;20.07;50.16;97807.25;5074891;28;19921;-74
2022/04/13 12:42:45;;;;;;;;;;;;;;;20.17;49.97;97806.06;5075748;28;19927;-74
2022/04/13 12:45:12;;;;;;;;;;;;;;;20.14;50.34;97804.81;5079653;28;19975;-74
2022/04/13 12:47:44;;;;;;;;;;;;;;;20.26;50.36;97802.22;5079648;28;19924;-74
2022/04/13 12:50:10;;;;;;;;;;;;;;;20.23;50.20;97793.91;5046451;28;19921;-74